createdAt,value
2016-11-23T00:00:17.291Z,0
2016-11-23T00:01:16.722Z,0
2016-11-23T00:02:16.353Z,0
2016-11-23T00:03:16.533Z,0
2016-11-23T00:04:16.306Z,0
2016-11-23T00:05:17.396Z,0
2016-11-23T00:06:16.330Z,0
2016-11-23T00:07:17.213Z,0
2016-11-23T00:08:17.806Z,0
2016-11-23T00:09:17.285Z,0
2016-11-23T00:10:17.380Z,0
2016-11-23T00:11:17.726Z,0
2016-11-23T00:12:16.687Z,0
2016-11-23T00:13:17.485Z,0
2016-11-23T00:14:17.052Z,0
2016-11-23T00:15:16.489Z,0
2016-11-23T00:16:16.549Z,0
2016-11-23T00:17:16.358Z,0
2016-11-23T00:18:17.632Z,0
2016-11-23T00:19:16.514Z,0
2016-11-23T00:20:17.194Z,0
2016-11-23T00:21:18.423Z,0
2016-11-23T00:22:17.686Z,0
2016-11-23T00:23:16.679Z,0
2016-11-23T00:24:17.290Z,0
2016-11-23T00:25:16.653Z,0
2016-11-23T00:26:16.804Z,0
2016-11-23T00:27:17.457Z,0
2016-11-23T00:28:17.324Z,0
2016-11-23T00:29:17.491Z,0
2016-11-23T00:30:17.360Z,0
2016-11-23T00:31:17.262Z,0
2016-11-23T00:32:17.066Z,0
2016-11-23T00:33:17.635Z,0
2016-11-23T00:34:17.205Z,0
2016-11-23T00:35:17.267Z,0
2016-11-23T00:36:17.358Z,0
2016-11-23T00:37:19.081Z,0
2016-11-23T00:38:17.590Z,0
2016-11-23T00:39:17.628Z,0
2016-11-23T00:40:17.503Z,0
2016-11-23T00:41:18.018Z,0
2016-11-23T00:42:16.950Z,0
2016-11-23T00:43:17.678Z,0
2016-11-23T00:44:17.883Z,0
2016-11-23T00:45:17.460Z,0
2016-11-23T00:46:17.397Z,0
2016-11-23T00:47:17.389Z,0
2016-11-23T00:48:18.205Z,0
2016-11-23T00:49:17.647Z,0
2016-11-23T00:50:17.658Z,0
2016-11-23T00:51:18.271Z,0
2016-11-23T00:52:17.489Z,0
2016-11-23T00:53:17.598Z,0
2016-11-23T00:54:18.254Z,0
2016-11-23T00:55:18.267Z,0
2016-11-23T00:56:17.267Z,0
2016-11-23T00:57:17.330Z,0
2016-11-23T00:58:18.902Z,0
2016-11-23T00:59:18.106Z,0
2016-11-23T01:00:17.810Z,0
2016-11-23T01:01:17.406Z,0
2016-11-23T01:02:17.738Z,0
2016-11-23T01:03:18.010Z,0
2016-11-23T01:04:18.702Z,0
2016-11-23T01:05:17.755Z,0
2016-11-23T01:06:17.719Z,0
2016-11-23T01:07:17.835Z,0
2016-11-23T01:08:17.419Z,0
2016-11-23T01:09:18.072Z,0
2016-11-23T01:10:17.302Z,0
2016-11-23T01:11:18.648Z,0
2016-11-23T01:12:18.495Z,0
2016-11-23T01:13:18.273Z,0
2016-11-23T01:14:17.639Z,0
2016-11-23T01:15:18.026Z,0
2016-11-23T01:16:17.880Z,0
2016-11-23T01:17:18.133Z,0
2016-11-23T01:18:18.152Z,0
2016-11-23T01:19:18.783Z,0
2016-11-23T01:20:18.861Z,0
2016-11-23T01:21:17.874Z,0
2016-11-23T01:22:17.802Z,0
2016-11-23T01:23:18.413Z,0
2016-11-23T01:24:17.830Z,0
2016-11-23T01:25:17.822Z,0
2016-11-23T01:26:18.574Z,0
2016-11-23T01:27:18.796Z,0
2016-11-23T01:28:18.322Z,0
2016-11-23T01:29:19.106Z,0
2016-11-23T01:30:18.986Z,0
2016-11-23T01:31:18.893Z,0
2016-11-23T01:32:18.706Z,0
2016-11-23T01:33:17.911Z,0
2016-11-23T01:34:18.442Z,0
2016-11-23T01:35:18.439Z,0
2016-11-23T01:36:18.191Z,0
2016-11-23T01:37:18.477Z,0
2016-11-23T01:38:18.270Z,0
2016-11-23T01:39:18.079Z,0
2016-11-23T01:40:19.173Z,0
2016-11-23T01:41:17.807Z,0
2016-11-23T01:42:18.587Z,0
2016-11-23T01:43:17.967Z,0
2016-11-23T01:44:18.606Z,0
2016-11-23T01:45:18.524Z,0
2016-11-23T01:46:18.716Z,0
2016-11-23T01:47:17.928Z,0
2016-11-23T01:48:18.535Z,0
2016-11-23T01:49:19.005Z,0
2016-11-23T01:50:18.974Z,0
2016-11-23T01:51:18.887Z,0
2016-11-23T01:52:19.496Z,0
2016-11-23T01:53:18.066Z,0
2016-11-23T01:54:18.093Z,0
2016-11-23T01:55:19.251Z,0
2016-11-23T01:56:20.421Z,0
2016-11-23T01:57:18.298Z,0
2016-11-23T01:58:18.971Z,0
2016-11-23T01:59:18.253Z,0
2016-11-23T02:00:18.193Z,0
2016-11-23T02:01:18.619Z,0
2016-11-23T02:02:18.727Z,0
2016-11-23T02:03:18.991Z,0
2016-11-23T02:04:19.199Z,0
2016-11-23T02:05:18.602Z,0
2016-11-23T02:06:18.923Z,0
2016-11-23T02:07:18.626Z,0
2016-11-23T02:08:18.686Z,0
2016-11-23T02:09:19.324Z,0
2016-11-23T02:10:19.144Z,0
2016-11-23T02:11:18.100Z,0
2016-11-23T02:12:17.943Z,0
2016-11-23T02:13:19.019Z,0
2016-11-23T02:14:18.695Z,0
2016-11-23T02:15:18.585Z,0
2016-11-23T02:16:19.032Z,0
2016-11-23T02:17:20.041Z,0
2016-11-23T02:18:19.047Z,0
2016-11-23T02:19:19.246Z,0
2016-11-23T02:20:19.281Z,0
2016-11-23T02:21:18.537Z,0
2016-11-23T02:22:18.439Z,0
2016-11-23T02:23:19.116Z,0
2016-11-23T02:24:19.302Z,0
2016-11-23T02:25:18.195Z,0
2016-11-23T02:26:18.528Z,0
2016-11-23T02:27:20.140Z,0
2016-11-23T02:28:19.353Z,0
2016-11-23T02:29:19.116Z,0
2016-11-23T02:30:18.474Z,0
2016-11-23T02:31:18.887Z,0
2016-11-23T02:32:19.052Z,0
2016-11-23T02:33:19.934Z,0
2016-11-23T02:34:20.088Z,0
2016-11-23T02:35:19.748Z,0
2016-11-23T02:36:19.272Z,0
2016-11-23T02:37:19.237Z,0
2016-11-23T02:38:18.840Z,0
2016-11-23T02:39:19.261Z,0
2016-11-23T02:40:19.934Z,0
2016-11-23T02:41:20.088Z,0
2016-11-23T02:42:18.996Z,0
2016-11-23T02:43:19.987Z,0
2016-11-23T02:44:21.270Z,0
2016-11-23T02:45:20.338Z,0
2016-11-23T02:46:20.262Z,0
2016-11-23T02:47:20.060Z,0
2016-11-23T02:48:19.766Z,0
2016-11-23T02:49:19.274Z,0
2016-11-23T02:50:20.287Z,0
2016-11-23T02:51:20.175Z,0
2016-11-23T02:52:19.440Z,0
2016-11-23T02:53:20.203Z,0
2016-11-23T02:54:20.332Z,0
2016-11-23T02:55:20.246Z,0
2016-11-23T02:56:20.183Z,0
2016-11-23T02:57:19.075Z,0
2016-11-23T02:58:20.185Z,0
2016-11-23T02:59:18.759Z,0
2016-11-23T03:00:19.348Z,0
2016-11-23T03:01:20.320Z,0
2016-11-23T03:02:19.843Z,0
2016-11-23T03:03:21.885Z,0
2016-11-23T03:04:20.582Z,0
2016-11-23T03:05:20.458Z,0
2016-11-23T03:06:19.495Z,0
2016-11-23T03:07:19.947Z,0
2016-11-23T03:08:19.288Z,0
2016-11-23T03:09:19.914Z,0
2016-11-23T03:10:20.012Z,0
2016-11-23T03:11:19.517Z,0
2016-11-23T03:12:20.419Z,0
2016-11-23T03:13:20.831Z,0
2016-11-23T03:14:19.908Z,0
2016-11-23T03:15:19.771Z,0
2016-11-23T03:16:20.010Z,0
2016-11-23T03:17:19.979Z,0
2016-11-23T03:18:20.434Z,0
2016-11-23T03:19:20.174Z,0
2016-11-23T03:20:20.236Z,0
2016-11-23T03:21:20.049Z,0
2016-11-23T03:22:20.160Z,0
2016-11-23T03:23:19.960Z,0
2016-11-23T03:24:20.467Z,0
2016-11-23T03:25:20.562Z,0
2016-11-23T03:26:19.463Z,0
2016-11-23T03:27:19.546Z,0
2016-11-23T03:28:20.047Z,0
2016-11-23T03:29:20.509Z,0
2016-11-23T03:30:20.091Z,0
2016-11-23T03:31:20.102Z,0
2016-11-23T03:32:20.902Z,0
2016-11-23T03:33:20.452Z,0
2016-11-23T03:34:20.545Z,0
2016-11-23T03:35:20.410Z,0
2016-11-23T03:36:19.923Z,0
2016-11-23T03:37:20.383Z,0
2016-11-23T03:38:20.792Z,0
2016-11-23T03:39:20.547Z,0
2016-11-23T03:40:20.122Z,0
2016-11-23T03:41:20.718Z,0
2016-11-23T03:42:21.132Z,0
2016-11-23T03:43:20.880Z,0
2016-11-23T03:44:20.840Z,0
2016-11-23T03:45:19.904Z,0
2016-11-23T03:46:20.465Z,0
2016-11-23T03:47:19.938Z,0
2016-11-23T03:48:20.676Z,0
2016-11-23T03:49:20.581Z,0
2016-11-23T03:50:20.999Z,0
2016-11-23T03:51:23.811Z,0
2016-11-23T03:52:20.358Z,0
2016-11-23T03:53:20.595Z,0
2016-11-23T03:54:20.730Z,0
2016-11-23T03:55:19.915Z,0
2016-11-23T03:56:20.599Z,0
2016-11-23T03:57:20.209Z,0
2016-11-23T03:58:20.332Z,0
2016-11-23T03:59:20.607Z,0
2016-11-23T04:00:21.167Z,0
2016-11-23T04:01:21.779Z,0
2016-11-23T04:02:20.536Z,0
2016-11-23T04:03:20.743Z,0
2016-11-23T04:04:21.225Z,0
2016-11-23T04:05:20.402Z,0
2016-11-23T04:06:21.147Z,0
2016-11-23T04:07:21.031Z,0
2016-11-23T04:08:20.818Z,0
2016-11-23T04:09:20.177Z,0
2016-11-23T04:10:20.221Z,0
2016-11-23T04:11:20.971Z,0
2016-11-23T04:12:21.155Z,0
2016-11-23T04:13:20.388Z,0
2016-11-23T04:14:21.202Z,0
2016-11-23T04:15:21.682Z,0
2016-11-23T04:16:21.226Z,0
2016-11-23T04:17:22.492Z,0
2016-11-23T04:18:20.367Z,0
2016-11-23T04:19:22.177Z,0
2016-11-23T04:20:20.647Z,0
2016-11-23T04:21:20.645Z,0
2016-11-23T04:22:21.664Z,0
2016-11-23T04:23:20.895Z,0
2016-11-23T04:24:21.128Z,0
2016-11-23T04:25:21.490Z,0
2016-11-23T04:26:20.476Z,0
2016-11-23T04:27:21.001Z,0
2016-11-23T04:28:21.947Z,0
2016-11-23T04:29:21.280Z,0
2016-11-23T04:30:21.295Z,0
2016-11-23T04:31:20.554Z,0
2016-11-23T04:32:21.291Z,0
2016-11-23T04:33:21.310Z,0
2016-11-23T04:34:21.904Z,0
2016-11-23T04:35:21.334Z,0
2016-11-23T04:36:21.345Z,0
2016-11-23T04:37:20.293Z,0
2016-11-23T04:38:21.459Z,0
2016-11-23T04:39:21.926Z,0
2016-11-23T04:40:21.508Z,0
2016-11-23T04:41:21.129Z,0
2016-11-23T04:42:21.241Z,0
2016-11-23T04:43:21.837Z,0
2016-11-23T04:44:21.816Z,0
2016-11-23T04:45:20.840Z,0
2016-11-23T04:46:20.872Z,0
2016-11-23T04:47:21.885Z,0
2016-11-23T04:48:20.783Z,0
2016-11-23T04:49:21.811Z,0
2016-11-23T04:50:21.418Z,0
2016-11-23T04:51:22.354Z,0
2016-11-23T04:52:21.417Z,0
2016-11-23T04:53:21.220Z,0
2016-11-23T04:54:21.498Z,0
2016-11-23T04:55:22.627Z,0
2016-11-23T04:56:21.938Z,0
2016-11-23T04:57:21.089Z,0
2016-11-23T04:58:22.858Z,0
2016-11-23T04:59:21.677Z,0
2016-11-23T05:00:21.192Z,0
2016-11-23T05:01:21.318Z,0
2016-11-23T05:02:21.214Z,0
2016-11-23T05:03:21.421Z,0
2016-11-23T05:04:21.432Z,0
2016-11-23T05:05:21.559Z,0
2016-11-23T05:06:21.607Z,0
2016-11-23T05:07:21.538Z,0
2016-11-23T05:08:20.956Z,0
2016-11-23T05:09:21.711Z,0
2016-11-23T05:10:21.644Z,0
2016-11-23T05:11:21.156Z,0
2016-11-23T05:12:22.358Z,0
2016-11-23T05:13:21.980Z,0
2016-11-23T05:14:21.696Z,0
2016-11-23T05:15:21.573Z,0
2016-11-23T05:17:22.290Z,0
2016-11-23T05:18:23.538Z,0
2016-11-23T05:19:21.139Z,0
2016-11-23T05:20:22.406Z,0
2016-11-23T05:21:22.706Z,0
2016-11-23T05:22:22.178Z,0
2016-11-23T05:23:21.620Z,0
2016-11-23T05:24:22.490Z,0
2016-11-23T05:25:23.348Z,0
2016-11-23T05:26:22.786Z,0
2016-11-23T05:27:22.910Z,0
2016-11-23T05:28:23.921Z,0
2016-11-23T05:29:23.480Z,0
2016-11-23T05:30:23.422Z,0
2016-11-23T05:31:22.691Z,0
2016-11-23T05:32:23.797Z,0
2016-11-23T05:33:23.799Z,0
2016-11-23T05:34:22.302Z,0
2016-11-23T05:35:22.211Z,0
2016-11-23T05:36:23.315Z,0
2016-11-23T05:37:24.941Z,0
2016-11-23T05:38:22.224Z,0
2016-11-23T05:39:23.000Z,0
2016-11-23T05:40:24.318Z,0
2016-11-23T05:41:22.985Z,0
2016-11-23T05:42:22.933Z,0
2016-11-23T05:43:23.049Z,0
2016-11-23T05:44:23.161Z,0
2016-11-23T05:45:22.173Z,0
2016-11-23T05:46:23.098Z,0
2016-11-23T05:47:23.412Z,0
2016-11-23T05:48:24.592Z,0
2016-11-23T05:49:21.897Z,0
2016-11-23T05:50:23.375Z,0
2016-11-23T05:51:23.873Z,0
2016-11-23T05:52:24.250Z,0
2016-11-23T05:53:22.413Z,0
2016-11-23T05:54:22.055Z,0
2016-11-23T05:55:23.357Z,0
2016-11-23T05:56:23.108Z,0
2016-11-23T05:57:24.075Z,0
2016-11-23T05:58:23.140Z,0
2016-11-23T05:59:24.208Z,0
2016-11-23T06:00:22.781Z,0
2016-11-23T06:01:23.180Z,0
2016-11-23T06:02:23.906Z,0
2016-11-23T06:03:23.599Z,0
2016-11-23T06:04:22.922Z,0
2016-11-23T06:05:23.249Z,0
2016-11-23T06:06:23.152Z,0
2016-11-23T06:07:22.692Z,0
2016-11-23T06:08:24.142Z,0
2016-11-23T06:09:22.805Z,0
2016-11-23T06:10:22.402Z,0
2016-11-23T06:11:23.163Z,0
2016-11-23T06:12:23.076Z,0
2016-11-23T06:13:25.437Z,0
2016-11-23T06:14:22.938Z,0
2016-11-23T06:15:24.138Z,0
2016-11-23T06:16:24.430Z,0
2016-11-23T06:17:22.757Z,0
2016-11-23T06:18:23.643Z,4
2016-11-23T06:19:23.775Z,4
2016-11-23T06:20:26.186Z,0
2016-11-23T06:21:22.791Z,4
2016-11-23T06:22:24.189Z,4
2016-11-23T06:23:24.255Z,0
2016-11-23T06:24:23.308Z,4
2016-11-23T06:25:24.323Z,4
2016-11-23T06:26:23.023Z,4
2016-11-23T06:27:24.996Z,4
2016-11-23T06:28:23.985Z,8
2016-11-23T06:29:24.484Z,8
2016-11-23T06:30:24.299Z,12
2016-11-23T06:31:24.515Z,12
2016-11-23T06:32:23.285Z,16
2016-11-23T06:33:22.954Z,16
2016-11-23T06:34:24.224Z,20
2016-11-23T06:35:23.757Z,24
2016-11-23T06:36:22.887Z,28
2016-11-23T06:37:23.664Z,36
2016-11-23T06:38:25.150Z,40
2016-11-23T06:39:25.303Z,40
2016-11-23T06:40:23.342Z,48
2016-11-23T06:41:24.141Z,56
2016-11-23T06:42:24.096Z,64
2016-11-23T06:43:23.060Z,72
2016-11-23T06:44:23.492Z,76
2016-11-23T06:45:23.123Z,84
2016-11-23T06:46:25.825Z,96
2016-11-23T06:47:23.692Z,104
2016-11-23T06:48:23.741Z,116
2016-11-23T06:49:24.929Z,132
2016-11-23T06:50:23.507Z,144
2016-11-23T06:51:23.870Z,156
2016-11-23T06:52:23.695Z,168
2016-11-23T06:53:23.879Z,180
2016-11-23T06:54:23.026Z,192
2016-11-23T06:55:23.230Z,204
2016-11-23T06:56:23.804Z,220
2016-11-23T06:57:24.039Z,236
2016-11-23T06:58:23.305Z,248
2016-11-23T06:59:23.633Z,264
2016-11-23T07:00:23.973Z,284
2016-11-23T07:01:26.129Z,300
2016-11-23T07:02:23.735Z,324
2016-11-23T07:03:23.995Z,348
2016-11-23T07:04:24.688Z,376
2016-11-23T07:05:23.427Z,404
2016-11-23T07:06:23.680Z,428
2016-11-23T07:07:23.591Z,456
2016-11-23T07:08:26.502Z,488
2016-11-23T07:09:25.043Z,524
2016-11-23T07:10:24.022Z,560
2016-11-23T07:11:23.553Z,592
2016-11-23T07:12:24.840Z,628
2016-11-23T07:13:23.500Z,668
2016-11-23T07:14:23.328Z,712
2016-11-23T07:15:24.627Z,764
2016-11-23T07:16:22.758Z,808
2016-11-23T07:17:23.300Z,848
2016-11-23T07:18:25.563Z,896
2016-11-23T07:19:23.475Z,952
2016-11-23T07:20:25.226Z,1012
2016-11-23T07:21:24.203Z,1056
2016-11-23T07:22:23.974Z,1084
2016-11-23T07:23:24.319Z,1096
2016-11-23T07:24:23.978Z,1120
2016-11-23T07:25:23.705Z,1160
2016-11-23T07:26:23.966Z,1208
2016-11-23T07:27:24.761Z,1252
2016-11-23T07:28:23.924Z,1272
2016-11-23T07:29:23.564Z,1292
2016-11-23T07:30:24.314Z,1332
2016-11-23T07:31:23.898Z,1376
2016-11-23T07:32:24.319Z,1380
2016-11-23T07:33:23.329Z,1392
2016-11-23T07:34:24.240Z,1448
2016-11-23T07:35:25.134Z,1516
2016-11-23T07:36:25.078Z,1584
2016-11-23T07:37:24.381Z,1624
2016-11-23T07:38:24.922Z,1652
2016-11-23T07:39:24.799Z,1712
2016-11-23T07:40:24.010Z,1796
2016-11-23T07:41:24.022Z,1876
2016-11-23T07:42:23.631Z,1952
2016-11-23T07:43:25.800Z,2008
2016-11-23T07:44:23.708Z,2064
2016-11-23T07:45:25.067Z,2096
2016-11-23T07:46:23.931Z,2144
2016-11-23T07:47:23.695Z,2252
2016-11-23T07:48:24.493Z,2372
2016-11-23T07:49:23.786Z,2448
2016-11-23T07:50:25.360Z,2496
2016-11-23T07:51:24.924Z,2464
2016-11-23T07:52:23.607Z,2484
2016-11-23T07:53:23.886Z,2576
2016-11-23T07:54:25.644Z,2664
2016-11-23T07:55:25.101Z,2688
2016-11-23T07:56:24.076Z,2716
2016-11-23T07:57:24.663Z,2812
2016-11-23T07:58:24.420Z,2932
2016-11-23T07:59:24.898Z,3000
2016-11-23T08:00:24.399Z,3004
2016-11-23T08:01:24.801Z,3088
2016-11-23T08:02:25.888Z,3220
2016-11-23T08:03:24.390Z,3316
2016-11-23T08:04:24.713Z,3380
2016-11-23T08:05:24.160Z,3452
2016-11-23T08:06:24.632Z,3564
2016-11-23T08:07:23.568Z,3628
2016-11-23T08:08:24.678Z,3704
2016-11-23T08:09:24.333Z,3680
2016-11-23T08:10:25.894Z,3564
2016-11-23T08:11:24.075Z,3560
2016-11-23T08:12:24.977Z,3716
2016-11-23T08:13:25.381Z,3812
2016-11-23T08:14:24.555Z,3660
2016-11-23T08:15:24.922Z,3820
2016-11-23T08:16:24.925Z,4036
2016-11-23T08:17:24.925Z,4204
2016-11-23T08:18:24.237Z,4196
2016-11-23T08:19:24.510Z,4300
2016-11-23T08:20:25.200Z,4336
2016-11-23T08:21:24.290Z,4380
2016-11-23T08:22:24.406Z,4576
2016-11-23T08:23:24.491Z,4744
2016-11-23T08:24:25.227Z,5024
2016-11-23T08:25:24.711Z,5148
2016-11-23T08:26:24.317Z,5220
2016-11-23T08:27:24.818Z,5412
2016-11-23T08:28:24.902Z,5616
2016-11-23T08:29:26.282Z,5720
2016-11-23T08:30:24.344Z,5736
2016-11-23T08:31:25.398Z,5876
2016-11-23T08:32:26.226Z,6000
2016-11-23T08:33:24.744Z,6008
2016-11-23T08:34:25.078Z,6092
2016-11-23T08:35:25.251Z,6100
2016-11-23T08:36:26.267Z,6144
2016-11-23T08:37:24.745Z,6168
2016-11-23T08:38:25.004Z,6168
2016-11-23T08:39:25.426Z,6168
2016-11-23T08:40:24.934Z,6180
2016-11-23T08:41:25.151Z,6192
2016-11-23T08:42:25.328Z,6200
2016-11-23T08:43:25.274Z,6196
2016-11-23T08:44:24.763Z,6164
2016-11-23T08:45:24.404Z,6152
2016-11-23T08:46:25.020Z,6132
2016-11-23T08:47:26.373Z,6056
2016-11-23T08:48:24.878Z,6048
2016-11-23T08:49:24.780Z,6172
2016-11-23T08:50:25.151Z,6228
2016-11-23T08:51:24.825Z,6264
2016-11-23T08:52:26.572Z,6308
2016-11-23T08:53:25.062Z,6348
2016-11-23T08:54:25.469Z,6360
2016-11-23T08:55:24.809Z,6388
2016-11-23T08:56:24.422Z,6312
2016-11-23T08:57:25.941Z,6340
2016-11-23T08:58:25.974Z,6340
2016-11-23T08:59:26.352Z,6464
2016-11-23T09:00:25.342Z,6440
2016-11-23T09:01:25.717Z,6444
2016-11-23T09:02:25.871Z,6476
2016-11-23T09:03:26.852Z,6492
2016-11-23T09:04:24.512Z,6488
2016-11-23T09:05:26.072Z,6560
2016-11-23T09:06:26.784Z,6636
2016-11-23T09:07:25.920Z,6700
2016-11-23T09:08:24.863Z,6824
2016-11-23T09:09:25.865Z,6944
2016-11-23T09:10:26.371Z,7004
2016-11-23T09:11:24.909Z,7048
2016-11-23T09:12:25.035Z,7076
2016-11-23T09:13:26.177Z,7096
2016-11-23T09:14:26.559Z,7112
2016-11-23T09:15:25.939Z,7148
2016-11-23T09:16:25.246Z,7204
2016-11-23T09:17:25.106Z,7292
2016-11-23T09:18:26.671Z,7404
2016-11-23T09:19:25.636Z,7500
2016-11-23T09:20:26.054Z,7580
2016-11-23T09:21:26.233Z,7652
2016-11-23T09:22:27.042Z,7712
2016-11-23T09:23:25.831Z,7772
2016-11-23T09:24:25.634Z,7840
2016-11-23T09:25:26.238Z,7892
2016-11-23T09:26:26.673Z,7920
2016-11-23T09:27:25.249Z,7924
2016-11-23T09:28:25.821Z,7896
2016-11-23T09:29:26.405Z,7860
2016-11-23T09:30:26.913Z,7808
2016-11-23T09:31:25.082Z,7748
2016-11-23T09:32:26.218Z,7684
2016-11-23T09:33:25.225Z,7652
2016-11-23T09:34:25.174Z,7648
2016-11-23T09:35:26.813Z,7676
2016-11-23T09:36:25.218Z,7716
2016-11-23T09:37:27.170Z,7800
2016-11-23T09:38:25.371Z,7928
2016-11-23T09:39:26.496Z,8072
2016-11-23T09:40:25.650Z,8216
2016-11-23T09:41:26.950Z,8388
2016-11-23T09:42:26.216Z,8532
2016-11-23T09:43:26.126Z,8664
2016-11-23T09:44:25.984Z,8768
2016-11-23T09:45:26.518Z,8864
2016-11-23T09:46:25.906Z,8936
2016-11-23T09:47:26.245Z,9000
2016-11-23T09:48:26.222Z,9072
2016-11-23T09:49:26.838Z,9136
2016-11-23T09:50:26.530Z,9208
2016-11-23T09:51:26.371Z,9296
2016-11-23T09:52:26.845Z,9380
2016-11-23T09:53:26.136Z,9444
2016-11-23T09:54:26.117Z,9532
2016-11-23T09:55:26.941Z,9636
2016-11-23T09:56:27.837Z,9708
2016-11-23T09:57:25.981Z,9800
2016-11-23T09:58:26.322Z,9932
2016-11-23T09:59:26.532Z,10108
2016-11-23T10:00:26.936Z,10308
2016-11-23T10:01:26.275Z,10472
2016-11-23T10:02:27.162Z,10588
2016-11-23T10:03:26.936Z,10704
2016-11-23T10:04:26.816Z,10820
2016-11-23T10:05:26.100Z,10880
2016-11-23T10:06:26.043Z,10940
2016-11-23T10:07:25.340Z,11108
2016-11-23T10:08:26.798Z,11088
2016-11-23T10:09:26.028Z,11024
2016-11-23T10:10:26.735Z,11016
2016-11-23T10:11:27.247Z,11088
2016-11-23T10:12:27.646Z,11164
2016-11-23T10:13:25.936Z,11196
2016-11-23T10:14:26.769Z,11276
2016-11-23T10:15:26.643Z,11396
2016-11-23T10:16:28.265Z,11436
2016-11-23T10:17:26.083Z,11356
2016-11-23T10:18:26.681Z,11300
2016-11-23T10:19:28.278Z,11300
2016-11-23T10:20:25.969Z,11324
2016-11-23T10:21:27.205Z,11332
2016-11-23T10:22:27.301Z,11340
2016-11-23T10:23:26.754Z,11292
2016-11-23T10:24:26.448Z,11184
2016-11-23T10:25:26.523Z,11148
2016-11-23T10:26:26.538Z,11172
2016-11-23T10:27:25.828Z,10992
2016-11-23T10:28:26.676Z,10824
2016-11-23T10:29:26.856Z,10724
2016-11-23T10:30:27.555Z,10452
2016-11-23T10:31:27.814Z,10156
2016-11-23T10:32:26.149Z,9860
2016-11-23T10:33:26.681Z,9532
2016-11-23T10:34:28.108Z,9184
2016-11-23T10:35:26.656Z,8884
2016-11-23T10:36:26.451Z,8632
2016-11-23T10:37:27.456Z,8544
2016-11-23T10:38:27.101Z,8404
2016-11-23T10:39:27.879Z,8292
2016-11-23T10:40:26.511Z,8240
2016-11-23T10:41:26.234Z,8216
2016-11-23T10:42:26.708Z,8300
2016-11-23T10:43:26.463Z,8252
2016-11-23T10:44:26.934Z,8312
2016-11-23T10:45:28.079Z,8488
2016-11-23T10:46:28.063Z,8588
2016-11-23T10:47:27.506Z,8692
2016-11-23T10:48:27.041Z,8808
2016-11-23T10:49:27.762Z,8980
2016-11-23T10:50:28.911Z,9092
2016-11-23T10:51:27.048Z,9172
2016-11-23T10:52:27.481Z,9232
2016-11-23T10:53:28.374Z,9292
2016-11-23T10:54:27.354Z,9224
2016-11-23T10:55:26.938Z,9080
2016-11-23T10:56:26.968Z,8908
2016-11-23T10:57:27.790Z,8836
2016-11-23T10:58:26.575Z,8652
2016-11-23T10:59:28.034Z,8500
2016-11-23T11:00:27.063Z,8436
2016-11-23T11:01:26.293Z,8404
2016-11-23T11:02:27.664Z,8460
2016-11-23T11:03:27.593Z,8496
2016-11-23T11:04:28.857Z,8468
2016-11-23T11:05:26.960Z,8504
2016-11-23T11:06:26.961Z,8572
2016-11-23T11:07:26.634Z,8576
2016-11-23T11:08:27.802Z,8588
2016-11-23T11:09:28.067Z,8648
2016-11-23T11:10:26.952Z,8708
2016-11-23T11:11:27.929Z,8708
2016-11-23T11:12:27.561Z,8804
2016-11-23T11:13:27.875Z,8840
2016-11-23T11:14:27.425Z,8952
2016-11-23T11:15:27.893Z,9068
2016-11-23T11:16:28.267Z,9188
2016-11-23T11:17:27.653Z,9360
2016-11-23T11:18:27.739Z,9632
2016-11-23T11:19:27.317Z,9952
2016-11-23T11:20:28.898Z,10228
2016-11-23T11:21:27.085Z,10428
2016-11-23T11:22:27.563Z,10552
2016-11-23T11:23:28.362Z,10684
2016-11-23T11:24:28.177Z,10760
2016-11-23T11:25:27.448Z,10704
2016-11-23T11:26:27.725Z,10624
2016-11-23T11:27:28.575Z,10420
2016-11-23T11:28:29.377Z,10280
2016-11-23T11:29:27.212Z,10160
2016-11-23T11:30:27.553Z,10072
2016-11-23T11:31:28.706Z,9992
2016-11-23T11:32:28.537Z,9904
2016-11-23T11:33:27.728Z,9796
2016-11-23T11:34:28.404Z,9608
2016-11-23T11:35:27.869Z,9384
2016-11-23T11:36:28.515Z,9132
2016-11-23T11:37:27.776Z,8880
2016-11-23T11:38:28.125Z,8660
2016-11-23T11:39:28.861Z,8392
2016-11-23T11:40:27.304Z,8188
2016-11-23T11:41:28.244Z,8032
2016-11-23T11:42:27.788Z,7984
2016-11-23T11:43:29.266Z,7988
2016-11-23T11:44:29.340Z,8024
2016-11-23T11:45:28.211Z,8124
2016-11-23T11:46:28.409Z,8168
2016-11-23T11:47:28.530Z,8152
2016-11-23T11:48:28.618Z,8212
2016-11-23T11:49:27.759Z,8168
2016-11-23T11:50:29.005Z,8060
2016-11-23T11:51:28.235Z,8004
2016-11-23T11:52:27.955Z,7876
2016-11-23T11:53:28.722Z,7900
2016-11-23T11:54:29.869Z,7856
2016-11-23T11:55:29.289Z,7852
2016-11-23T11:56:28.044Z,7780
2016-11-23T11:57:29.191Z,7664
2016-11-23T11:58:30.126Z,7624
2016-11-23T11:59:30.284Z,7500
2016-11-23T12:00:29.631Z,7260
2016-11-23T12:01:29.210Z,7200
2016-11-23T12:02:27.945Z,7208
2016-11-23T12:03:29.207Z,7164
2016-11-23T12:04:28.428Z,6892
2016-11-23T12:05:28.592Z,6728
2016-11-23T12:06:29.683Z,6728
2016-11-23T12:07:28.649Z,6720
2016-11-23T12:08:28.637Z,6632
2016-11-23T12:09:29.236Z,6560
2016-11-23T12:10:30.085Z,6628
2016-11-23T12:11:29.867Z,6788
2016-11-23T12:12:28.458Z,7060
2016-11-23T12:13:28.947Z,7388
2016-11-23T12:14:28.332Z,7600
2016-11-23T12:15:28.429Z,7660
2016-11-23T12:16:28.587Z,7736
2016-11-23T12:17:29.993Z,7692
2016-11-23T12:18:28.100Z,7592
2016-11-23T12:19:28.636Z,7528
2016-11-23T12:20:28.787Z,7632
2016-11-23T12:21:29.926Z,7392
2016-11-23T12:22:29.906Z,7192
2016-11-23T12:23:29.530Z,7076
2016-11-23T12:24:28.916Z,7036
2016-11-23T12:25:29.284Z,7000
2016-11-23T12:26:31.047Z,6976
2016-11-23T12:27:29.891Z,6980
2016-11-23T12:28:29.463Z,7012
2016-11-23T12:29:29.374Z,7072
2016-11-23T12:30:31.971Z,7124
2016-11-23T12:31:29.200Z,7092
2016-11-23T12:32:28.726Z,7048
2016-11-23T12:33:29.293Z,7024
2016-11-23T12:34:29.291Z,6916
2016-11-23T12:35:29.251Z,6764
2016-11-23T12:36:29.496Z,6656
2016-11-23T12:37:29.820Z,6596
2016-11-23T12:38:28.827Z,6592
2016-11-23T12:39:29.153Z,6620
2016-11-23T12:40:29.380Z,6656
2016-11-23T12:41:30.982Z,6636
2016-11-23T12:42:28.911Z,6672
2016-11-23T12:43:28.568Z,6704
2016-11-23T12:44:31.269Z,6720
2016-11-23T12:45:30.087Z,6748
2016-11-23T12:46:29.510Z,6752
2016-11-23T12:47:29.995Z,6688
2016-11-23T12:48:28.739Z,6680
2016-11-23T12:49:28.772Z,6612
2016-11-23T12:50:29.072Z,6516
2016-11-23T12:51:29.065Z,6392
2016-11-23T12:52:29.279Z,6388
2016-11-23T12:53:30.008Z,6384
2016-11-23T12:54:29.488Z,6376
2016-11-23T12:55:29.210Z,6412
2016-11-23T12:56:30.863Z,6376
2016-11-23T12:57:31.417Z,6380
2016-11-23T12:58:30.187Z,6364
2016-11-23T12:59:30.447Z,6424
2016-11-23T13:00:29.270Z,6496
2016-11-23T13:01:31.655Z,6560
2016-11-23T13:02:30.047Z,6644
2016-11-23T13:03:30.378Z,6612
2016-11-23T13:04:30.094Z,6548
2016-11-23T13:05:29.700Z,6472
2016-11-23T13:06:29.356Z,6360
2016-11-23T13:07:29.977Z,6176
2016-11-23T13:08:31.744Z,5952
2016-11-23T13:09:30.133Z,5864
2016-11-23T13:10:29.740Z,5748
2016-11-23T13:11:30.436Z,5620
2016-11-23T13:12:31.742Z,5576
2016-11-23T13:13:30.386Z,5544
2016-11-23T13:14:30.086Z,5488
2016-11-23T13:15:29.218Z,5400
2016-11-23T13:16:29.790Z,5428
2016-11-23T13:17:29.960Z,5428
2016-11-23T13:18:30.397Z,5436
2016-11-23T13:19:31.491Z,5424
2016-11-23T13:20:30.114Z,5352
2016-11-23T13:21:30.089Z,5344
2016-11-23T13:22:31.175Z,5324
2016-11-23T13:23:30.389Z,5260
2016-11-23T13:24:29.648Z,5148
2016-11-23T13:25:30.398Z,5064
2016-11-23T13:26:30.402Z,5016
2016-11-23T13:27:31.624Z,4992
2016-11-23T13:28:30.598Z,4992
2016-11-23T13:29:30.652Z,4948
2016-11-23T13:30:30.869Z,4816
2016-11-23T13:31:31.044Z,4708
2016-11-23T13:32:29.964Z,4728
2016-11-23T13:33:31.335Z,4712
2016-11-23T13:34:30.348Z,4704
2016-11-23T13:35:32.279Z,4692
2016-11-23T13:36:30.085Z,4660
2016-11-23T13:37:29.616Z,4636
2016-11-23T13:38:31.564Z,4648
2016-11-23T13:39:31.739Z,4644
2016-11-23T13:40:30.166Z,4620
2016-11-23T13:41:31.492Z,4620
2016-11-23T13:42:31.910Z,4648
2016-11-23T13:43:31.273Z,4644
2016-11-23T13:44:31.386Z,4624
2016-11-23T13:45:31.387Z,4596
2016-11-23T13:46:32.536Z,4548
2016-11-23T13:47:30.139Z,4504
2016-11-23T13:48:31.572Z,4476
2016-11-23T13:49:31.744Z,4364
2016-11-23T13:50:32.360Z,4268
2016-11-23T13:51:30.115Z,4180
2016-11-23T13:52:30.940Z,4100
2016-11-23T13:53:30.966Z,4028
2016-11-23T13:54:32.177Z,3956
2016-11-23T13:55:31.177Z,3888
2016-11-23T13:56:31.515Z,3832
2016-11-23T13:57:32.186Z,3784
2016-11-23T13:58:32.588Z,3744
2016-11-23T13:59:31.279Z,3680